sensor_id;sensor_type;location;lat;lon;timestamp;P1;durP1;ratioP1;P2;durP2;ratioP2
76262;SDS011;65080;50.908;6.916;2023-03-01T00:01:20;4.97;;;4.00;;
76262;SDS011;65080;50.908;6.916;2023-03-01T00:03:49;5.10;;;4.43;;
76262;SDS011;65080;50.908;6.916;2023-03-01T00:06:18;10.67;;;4.90;;
76262;SDS011;65080;50.908;6.916;2023-03-01T00:08:48;5.20;;;4.20;;
76262;SDS011;65080;50.908;6.916;2023-03-01T00:11:17;6.53;;;4.63;;
76262;SDS011;65080;50.908;6.916;2023-03-01T00:13:48;6.03;;;4.17;;
76262;SDS011;65080;50.908;6.916;2023-03-01T00:16:19;5.37;;;4.17;;
76262;SDS011;65080;50.908;6.916;2023-03-01T00:18:49;6.80;;;5.00;;
76262;SDS011;65080;50.908;6.916;2023-03-01T00:21:18;6.97;;;5.20;;
76262;SDS011;65080;50.908;6.916;2023-03-01T00:23:47;6.97;;;4.77;;
76262;SDS011;65080;50.908;6.916;2023-03-01T00:26:17;6.73;;;4.33;;
76262;SDS011;65080;50.908;6.916;2023-03-01T00:28:46;7.20;;;5.20;;
76262;SDS011;65080;50.908;6.916;2023-03-01T00:31:17;6.63;;;4.20;;
76262;SDS011;65080;50.908;6.916;2023-03-01T00:33:47;5.67;;;4.17;;
76262;SDS011;65080;50.908;6.916;2023-03-01T00:36:16;6.40;;;4.47;;
76262;SDS011;65080;50.908;6.916;2023-03-01T00:38:44;6.43;;;4.93;;
76262;SDS011;65080;50.908;6.916;2023-03-01T00:41:14;7.63;;;4.60;;
76262;SDS011;65080;50.908;6.916;2023-03-01T00:43:44;8.10;;;4.00;;
76262;SDS011;65080;50.908;6.916;2023-03-01T00:46:13;6.50;;;4.50;;
76262;SDS011;65080;50.908;6.916;2023-03-01T00:48:44;8.77;;;4.80;;
76262;SDS011;65080;50.908;6.916;2023-03-01T00:51:13;6.70;;;4.27;;
76262;SDS011;65080;50.908;6.916;2023-03-01T00:53:43;8.00;;;6.00;;
76262;SDS011;65080;50.908;6.916;2023-03-01T00:56:13;7.07;;;5.30;;
76262;SDS011;65080;50.908;6.916;2023-03-01T00:58:42;6.37;;;4.67;;
76262;SDS011;65080;50.908;6.916;2023-03-01T01:01:11;9.20;;;5.87;;
76262;SDS011;65080;50.908;6.916;2023-03-01T01:03:47;8.23;;;4.60;;
76262;SDS011;65080;50.908;6.916;2023-03-01T01:06:17;6.23;;;4.43;;
76262;SDS011;65080;50.908;6.916;2023-03-01T01:08:47;5.70;;;4.47;;
76262;SDS011;65080;50.908;6.916;2023-03-01T01:11:17;7.20;;;4.77;;
76262;SDS011;65080;50.908;6.916;2023-03-01T01:13:46;6.43;;;4.77;;
76262;SDS011;65080;50.908;6.916;2023-03-01T01:16:15;6.47;;;4.60;;
76262;SDS011;65080;50.908;6.916;2023-03-01T01:18:45;10.00;;;5.27;;
76262;SDS011;65080;50.908;6.916;2023-03-01T01:21:15;6.60;;;4.47;;
76262;SDS011;65080;50.908;6.916;2023-03-01T01:23:45;7.07;;;5.10;;
76262;SDS011;65080;50.908;6.916;2023-03-01T01:26:15;8.87;;;4.50;;
76262;SDS011;65080;50.908;6.916;2023-03-01T01:28:45;8.37;;;5.00;;
76262;SDS011;65080;50.908;6.916;2023-03-01T01:31:14;6.40;;;4.60;;
76262;SDS011;65080;50.908;6.916;2023-03-01T01:33:43;6.00;;;4.70;;
76262;SDS011;65080;50.908;6.916;2023-03-01T01:36:12;8.90;;;4.57;;
76262;SDS011;65080;50.908;6.916;2023-03-01T01:38:41;6.33;;;4.70;;
76262;SDS011;65080;50.908;6.916;2023-03-01T01:41:11;6.83;;;4.57;;
76262;SDS011;65080;50.908;6.916;2023-03-01T01:43:41;5.67;;;4.43;;
76262;SDS011;65080;50.908;6.916;2023-03-01T01:46:14;9.30;;;4.77;;
76262;SDS011;65080;50.908;6.916;2023-03-01T01:48:49;7.50;;;4.70;;
76262;SDS011;65080;50.908;6.916;2023-03-01T01:51:25;6.63;;;5.10;;
76262;SDS011;65080;50.908;6.916;2023-03-01T01:54:06;9.03;;;5.30;;
76262;SDS011;65080;50.908;6.916;2023-03-01T01:56:37;6.27;;;4.40;;
76262;SDS011;65080;50.908;6.916;2023-03-01T01:59:08;8.13;;;4.50;;
76262;SDS011;65080;50.908;6.916;2023-03-01T02:01:37;7.83;;;5.20;;
76262;SDS011;65080;50.908;6.916;2023-03-01T02:04:06;9.80;;;5.10;;
76262;SDS011;65080;50.908;6.916;2023-03-01T02:06:36;5.60;;;4.20;;
76262;SDS011;65080;50.908;6.916;2023-03-01T02:09:07;7.40;;;5.27;;
76262;SDS011;65080;50.908;6.916;2023-03-01T02:11:40;7.80;;;4.83;;
76262;SDS011;65080;50.908;6.916;2023-03-01T02:14:10;5.03;;;4.33;;
76262;SDS011;65080;50.908;6.916;2023-03-01T02:16:39;5.80;;;4.50;;
76262;SDS011;65080;50.908;6.916;2023-03-01T02:19:07;8.10;;;5.63;;
76262;SDS011;65080;50.908;6.916;2023-03-01T02:21:44;6.93;;;5.00;;
76262;SDS011;65080;50.908;6.916;2023-03-01T02:24:20;13.10;;;5.43;;
76262;SDS011;65080;50.908;6.916;2023-03-01T02:26:57;6.50;;;4.40;;
76262;SDS011;65080;50.908;6.916;2023-03-01T02:29:29;6.63;;;4.53;;
76262;SDS011;65080;50.908;6.916;2023-03-01T02:31:58;5.97;;;4.43;;
76262;SDS011;65080;50.908;6.916;2023-03-01T02:34:29;5.20;;;4.30;;
76262;SDS011;65080;50.908;6.916;2023-03-01T02:37:00;6.63;;;5.23;;
76262;SDS011;65080;50.908;6.916;2023-03-01T02:39:31;8.67;;;5.50;;
76262;SDS011;65080;50.908;6.916;2023-03-01T02:42:04;9.37;;;5.27;;
76262;SDS011;65080;50.908;6.916;2023-03-01T02:44:34;5.23;;;4.47;;
76262;SDS011;65080;50.908;6.916;2023-03-01T02:47:03;7.27;;;4.40;;
76262;SDS011;65080;50.908;6.916;2023-03-01T02:49:33;6.03;;;4.37;;
76262;SDS011;65080;50.908;6.916;2023-03-01T02:54:58;6.90;;;5.57;;
76262;SDS011;65080;50.908;6.916;2023-03-01T02:57:32;7.93;;;4.90;;
76262;SDS011;65080;50.908;6.916;2023-03-01T03:00:05;6.20;;;5.03;;
76262;SDS011;65080;50.908;6.916;2023-03-01T03:02:35;6.10;;;5.00;;
76262;SDS011;65080;50.908;6.916;2023-03-01T03:05:04;6.50;;;4.30;;
76262;SDS011;65080;50.908;6.916;2023-03-01T03:07:35;6.07;;;5.30;;
76262;SDS011;65080;50.908;6.916;2023-03-01T03:10:05;6.73;;;4.10;;
76262;SDS011;65080;50.908;6.916;2023-03-01T03:12:36;5.63;;;4.40;;
76262;SDS011;65080;50.908;6.916;2023-03-01T03:15:06;7.63;;;5.10;;
76262;SDS011;65080;50.908;6.916;2023-03-01T03:17:36;5.67;;;4.67;;
76262;SDS011;65080;50.908;6.916;2023-03-01T03:20:05;6.50;;;5.50;;
76262;SDS011;65080;50.908;6.916;2023-03-01T03:22:38;6.53;;;5.10;;
76262;SDS011;65080;50.908;6.916;2023-03-01T03:25:07;10.23;;;5.60;;
76262;SDS011;65080;50.908;6.916;2023-03-01T03:27:37;10.50;;;5.30;;
76262;SDS011;65080;50.908;6.916;2023-03-01T03:30:09;8.63;;;5.60;;
76262;SDS011;65080;50.908;6.916;2023-03-01T03:32:40;10.97;;;5.80;;
76262;SDS011;65080;50.908;6.916;2023-03-01T03:35:19;7.63;;;5.30;;
76262;SDS011;65080;50.908;6.916;2023-03-01T03:37:48;10.07;;;5.30;;
76262;SDS011;65080;50.908;6.916;2023-03-01T03:40:33;8.10;;;5.80;;
76262;SDS011;65080;50.908;6.916;2023-03-01T03:43:03;8.37;;;5.40;;
76262;SDS011;65080;50.908;6.916;2023-03-01T03:45:35;6.93;;;4.70;;
76262;SDS011;65080;50.908;6.916;2023-03-01T03:48:04;11.40;;;6.10;;
76262;SDS011;65080;50.908;6.916;2023-03-01T03:50:34;6.10;;;4.90;;
76262;SDS011;65080;50.908;6.916;2023-03-01T03:53:03;7.40;;;4.97;;
76262;SDS011;65080;50.908;6.916;2023-03-01T03:55:33;8.10;;;6.07;;
76262;SDS011;65080;50.908;6.916;2023-03-01T03:58:02;8.60;;;5.00;;
76262;SDS011;65080;50.908;6.916;2023-03-01T04:00:35;8.60;;;5.60;;
76262;SDS011;65080;50.908;6.916;2023-03-01T04:03:04;10.53;;;6.40;;
76262;SDS011;65080;50.908;6.916;2023-03-01T04:05:32;7.70;;;5.40;;
76262;SDS011;65080;50.908;6.916;2023-03-01T04:08:01;8.67;;;5.77;;
76262;SDS011;65080;50.908;6.916;2023-03-01T04:10:30;8.30;;;4.40;;
76262;SDS011;65080;50.908;6.916;2023-03-01T04:12:59;8.30;;;4.77;;
76262;SDS011;65080;50.908;6.916;2023-03-01T04:15:28;10.80;;;4.90;;
76262;SDS011;65080;50.908;6.916;2023-03-01T04:17:57;7.37;;;5.33;;
76262;SDS011;65080;50.908;6.916;2023-03-01T04:20:27;9.17;;;5.80;;
76262;SDS011;65080;50.908;6.916;2023-03-01T04:22:57;8.00;;;5.40;;
76262;SDS011;65080;50.908;6.916;2023-03-01T04:25:34;10.80;;;6.90;;
76262;SDS011;65080;50.908;6.916;2023-03-01T04:28:03;7.40;;;5.27;;
76262;SDS011;65080;50.908;6.916;2023-03-01T04:30:31;6.97;;;4.83;;
76262;SDS011;65080;50.908;6.916;2023-03-01T04:33:04;8.23;;;5.77;;
76262;SDS011;65080;50.908;6.916;2023-03-01T04:35:32;8.70;;;5.70;;
76262;SDS011;65080;50.908;6.916;2023-03-01T04:38:03;7.73;;;5.10;;
76262;SDS011;65080;50.908;6.916;2023-03-01T04:40:31;7.77;;;5.43;;
76262;SDS011;65080;50.908;6.916;2023-03-01T04:42:59;7.33;;;4.80;;
76262;SDS011;65080;50.908;6.916;2023-03-01T04:45:28;10.50;;;5.60;;
76262;SDS011;65080;50.908;6.916;2023-03-01T04:47:56;8.27;;;5.40;;
76262;SDS011;65080;50.908;6.916;2023-03-01T04:50:26;8.87;;;5.77;;
76262;SDS011;65080;50.908;6.916;2023-03-01T04:52:54;9.13;;;5.37;;
76262;SDS011;65080;50.908;6.916;2023-03-01T04:55:25;7.80;;;5.10;;
76262;SDS011;65080;50.908;6.916;2023-03-01T04:57:54;13.23;;;6.20;;
76262;SDS011;65080;50.908;6.916;2023-03-01T05:00:23;7.77;;;5.43;;
76262;SDS011;65080;50.908;6.916;2023-03-01T05:02:52;6.10;;;5.03;;
76262;SDS011;65080;50.908;6.916;2023-03-01T05:05:22;8.43;;;6.13;;
76262;SDS011;65080;50.908;6.916;2023-03-01T05:07:54;8.30;;;5.83;;
76262;SDS011;65080;50.908;6.916;2023-03-01T05:10:24;11.33;;;6.67;;
76262;SDS011;65080;50.908;6.916;2023-03-01T05:12:55;6.40;;;5.50;;
76262;SDS011;65080;50.908;6.916;2023-03-01T05:15:24;8.63;;;6.37;;
76262;SDS011;65080;50.908;6.916;2023-03-01T05:17:54;8.67;;;5.60;;
76262;SDS011;65080;50.908;6.916;2023-03-01T05:20:25;14.50;;;5.90;;
76262;SDS011;65080;50.908;6.916;2023-03-01T05:22:57;7.53;;;5.40;;
76262;SDS011;65080;50.908;6.916;2023-03-01T05:25:26;7.70;;;6.13;;
76262;SDS011;65080;50.908;6.916;2023-03-01T05:27:59;8.40;;;5.97;;
76262;SDS011;65080;50.908;6.916;2023-03-01T05:30:31;9.60;;;5.00;;
76262;SDS011;65080;50.908;6.916;2023-03-01T05:33:00;7.80;;;5.50;;
76262;SDS011;65080;50.908;6.916;2023-03-01T05:35:29;7.37;;;5.70;;
76262;SDS011;65080;50.908;6.916;2023-03-01T05:38:01;9.37;;;5.53;;
76262;SDS011;65080;50.908;6.916;2023-03-01T05:40:29;8.50;;;6.30;;
76262;SDS011;65080;50.908;6.916;2023-03-01T05:42:57;10.43;;;6.87;;
76262;SDS011;65080;50.908;6.916;2023-03-01T05:45:26;10.50;;;5.80;;
76262;SDS011;65080;50.908;6.916;2023-03-01T05:47:55;10.10;;;6.20;;
76262;SDS011;65080;50.908;6.916;2023-03-01T05:50:24;10.30;;;6.40;;
76262;SDS011;65080;50.908;6.916;2023-03-01T05:52:57;6.60;;;5.67;;
76262;SDS011;65080;50.908;6.916;2023-03-01T05:55:28;7.93;;;6.70;;
76262;SDS011;65080;50.908;6.916;2023-03-01T05:57:58;11.90;;;7.37;;
76262;SDS011;65080;50.908;6.916;2023-03-01T06:00:27;9.77;;;6.10;;
76262;SDS011;65080;50.908;6.916;2023-03-01T06:02:57;10.40;;;5.77;;
76262;SDS011;65080;50.908;6.916;2023-03-01T06:05:26;12.20;;;6.63;;
76262;SDS011;65080;50.908;6.916;2023-03-01T06:07:58;8.73;;;6.50;;
76262;SDS011;65080;50.908;6.916;2023-03-01T06:10:28;9.70;;;7.20;;
76262;SDS011;65080;50.908;6.916;2023-03-01T06:12:56;10.50;;;7.03;;
76262;SDS011;65080;50.908;6.916;2023-03-01T06:15:25;8.43;;;6.40;;
76262;SDS011;65080;50.908;6.916;2023-03-01T06:17:54;8.90;;;6.50;;
76262;SDS011;65080;50.908;6.916;2023-03-01T06:20:25;14.27;;;8.07;;
76262;SDS011;65080;50.908;6.916;2023-03-01T06:22:55;7.70;;;6.10;;
76262;SDS011;65080;50.908;6.916;2023-03-01T06:25:24;10.07;;;6.17;;
76262;SDS011;65080;50.908;6.916;2023-03-01T06:27:55;9.60;;;6.60;;
76262;SDS011;65080;50.908;6.916;2023-03-01T06:30:23;12.87;;;7.30;;
76262;SDS011;65080;50.908;6.916;2023-03-01T06:32:53;10.90;;;6.10;;
76262;SDS011;65080;50.908;6.916;2023-03-01T06:35:27;11.20;;;6.13;;
76262;SDS011;65080;50.908;6.916;2023-03-01T06:37:57;10.10;;;7.30;;
76262;SDS011;65080;50.908;6.916;2023-03-01T06:40:27;11.17;;;6.93;;
76262;SDS011;65080;50.908;6.916;2023-03-01T06:42:57;11.37;;;6.93;;
76262;SDS011;65080;50.908;6.916;2023-03-01T06:45:27;8.00;;;6.13;;
76262;SDS011;65080;50.908;6.916;2023-03-01T06:48:01;9.80;;;6.50;;
76262;SDS011;65080;50.908;6.916;2023-03-01T06:50:30;10.00;;;6.60;;
76262;SDS011;65080;50.908;6.916;2023-03-01T06:52:59;10.40;;;7.13;;
76262;SDS011;65080;50.908;6.916;2023-03-01T06:55:27;9.93;;;6.30;;
76262;SDS011;65080;50.908;6.916;2023-03-01T06:57:58;10.13;;;7.30;;
76262;SDS011;65080;50.908;6.916;2023-03-01T07:00:27;8.63;;;6.20;;
76262;SDS011;65080;50.908;6.916;2023-03-01T07:02:57;9.80;;;6.73;;
76262;SDS011;65080;50.908;6.916;2023-03-01T07:05:28;8.87;;;6.57;;
76262;SDS011;65080;50.908;6.916;2023-03-01T07:07:57;15.53;;;6.80;;
76262;SDS011;65080;50.908;6.916;2023-03-01T07:10:25;11.27;;;6.77;;
76262;SDS011;65080;50.908;6.916;2023-03-01T07:12:57;10.50;;;6.83;;
76262;SDS011;65080;50.908;6.916;2023-03-01T07:15:27;8.70;;;6.07;;
76262;SDS011;65080;50.908;6.916;2023-03-01T07:17:55;12.80;;;7.83;;
76262;SDS011;65080;50.908;6.916;2023-03-01T07:20:24;10.90;;;7.53;;
76262;SDS011;65080;50.908;6.916;2023-03-01T07:22:52;12.03;;;6.63;;
76262;SDS011;65080;50.908;6.916;2023-03-01T07:25:21;14.10;;;8.20;;
76262;SDS011;65080;50.908;6.916;2023-03-01T07:27:50;10.77;;;6.43;;
76262;SDS011;65080;50.908;6.916;2023-03-01T07:30:20;12.93;;;6.60;;
76262;SDS011;65080;50.908;6.916;2023-03-01T07:32:48;14.07;;;7.40;;
76262;SDS011;65080;50.908;6.916;2023-03-01T07:35:20;13.10;;;7.00;;
76262;SDS011;65080;50.908;6.916;2023-03-01T07:37:48;10.60;;;6.93;;
76262;SDS011;65080;50.908;6.916;2023-03-01T07:40:17;12.17;;;6.80;;
76262;SDS011;65080;50.908;6.916;2023-03-01T07:42:45;17.10;;;8.90;;
76262;SDS011;65080;50.908;6.916;2023-03-01T07:45:13;13.23;;;8.23;;
76262;SDS011;65080;50.908;6.916;2023-03-01T07:47:43;13.13;;;8.10;;
76262;SDS011;65080;50.908;6.916;2023-03-01T07:50:11;12.63;;;7.40;;
76262;SDS011;65080;50.908;6.916;2023-03-01T07:52:40;16.70;;;8.83;;
76262;SDS011;65080;50.908;6.916;2023-03-01T07:55:08;11.80;;;7.50;;
76262;SDS011;65080;50.908;6.916;2023-03-01T07:57:37;11.20;;;8.33;;
76262;SDS011;65080;50.908;6.916;2023-03-01T08:00:05;13.10;;;8.00;;
76262;SDS011;65080;50.908;6.916;2023-03-01T08:02:35;12.60;;;8.97;;
76262;SDS011;65080;50.908;6.916;2023-03-01T08:05:06;10.33;;;7.80;;
76262;SDS011;65080;50.908;6.916;2023-03-01T08:07:34;13.47;;;8.83;;
76262;SDS011;65080;50.908;6.916;2023-03-01T08:10:03;13.77;;;8.50;;
76262;SDS011;65080;50.908;6.916;2023-03-01T08:12:32;13.13;;;8.03;;
76262;SDS011;65080;50.908;6.916;2023-03-01T08:15:00;13.00;;;8.57;;
76262;SDS011;65080;50.908;6.916;2023-03-01T08:17:28;11.33;;;8.40;;
76262;SDS011;65080;50.908;6.916;2023-03-01T08:19:57;13.23;;;9.73;;
76262;SDS011;65080;50.908;6.916;2023-03-01T08:22:26;14.67;;;8.70;;
76262;SDS011;65080;50.908;6.916;2023-03-01T08:24:54;17.90;;;8.87;;
76262;SDS011;65080;50.908;6.916;2023-03-01T08:27:23;11.00;;;8.03;;
76262;SDS011;65080;50.908;6.916;2023-03-01T08:29:51;13.60;;;9.27;;
76262;SDS011;65080;50.908;6.916;2023-03-01T08:32:19;12.30;;;8.83;;
76262;SDS011;65080;50.908;6.916;2023-03-01T08:34:48;12.40;;;8.80;;
76262;SDS011;65080;50.908;6.916;2023-03-01T08:37:16;12.43;;;9.00;;
76262;SDS011;65080;50.908;6.916;2023-03-01T08:39:46;14.33;;;8.40;;
76262;SDS011;65080;50.908;6.916;2023-03-01T08:42:14;13.87;;;8.70;;
76262;SDS011;65080;50.908;6.916;2023-03-01T08:44:43;14.33;;;8.77;;
76262;SDS011;65080;50.908;6.916;2023-03-01T08:47:12;13.27;;;8.10;;
76262;SDS011;65080;50.908;6.916;2023-03-01T08:49:41;15.17;;;9.10;;
76262;SDS011;65080;50.908;6.916;2023-03-01T08:52:09;11.03;;;8.10;;
76262;SDS011;65080;50.908;6.916;2023-03-01T08:54:37;15.00;;;8.87;;
76262;SDS011;65080;50.908;6.916;2023-03-01T08:57:07;13.30;;;8.87;;
76262;SDS011;65080;50.908;6.916;2023-03-01T08:59:36;15.13;;;9.27;;
76262;SDS011;65080;50.908;6.916;2023-03-01T09:02:04;11.63;;;7.80;;
76262;SDS011;65080;50.908;6.916;2023-03-01T09:04:33;13.10;;;8.53;;
76262;SDS011;65080;50.908;6.916;2023-03-01T09:07:02;14.17;;;8.50;;
76262;SDS011;65080;50.908;6.916;2023-03-01T09:09:30;16.23;;;9.17;;
76262;SDS011;65080;50.908;6.916;2023-03-01T09:11:59;14.93;;;10.00;;
76262;SDS011;65080;50.908;6.916;2023-03-01T09:14:28;12.93;;;9.40;;
76262;SDS011;65080;50.908;6.916;2023-03-01T09:16:57;10.83;;;7.97;;
76262;SDS011;65080;50.908;6.916;2023-03-01T09:19:29;10.70;;;7.77;;
76262;SDS011;65080;50.908;6.916;2023-03-01T09:21:57;13.33;;;9.03;;
76262;SDS011;65080;50.908;6.916;2023-03-01T09:24:25;15.40;;;8.23;;
76262;SDS011;65080;50.908;6.916;2023-03-01T09:26:54;11.70;;;8.30;;
76262;SDS011;65080;50.908;6.916;2023-03-01T09:29:31;10.83;;;8.00;;
76262;SDS011;65080;50.908;6.916;2023-03-01T09:31:59;12.30;;;7.50;;
76262;SDS011;65080;50.908;6.916;2023-03-01T09:34:27;11.83;;;7.90;;
76262;SDS011;65080;50.908;6.916;2023-03-01T09:36:57;12.97;;;9.17;;
76262;SDS011;65080;50.908;6.916;2023-03-01T09:39:28;11.37;;;8.37;;
76262;SDS011;65080;50.908;6.916;2023-03-01T09:41:59;13.70;;;7.77;;
76262;SDS011;65080;50.908;6.916;2023-03-01T09:44:32;11.40;;;8.03;;
76262;SDS011;65080;50.908;6.916;2023-03-01T09:47:05;15.43;;;7.90;;
76262;SDS011;65080;50.908;6.916;2023-03-01T09:49:39;12.03;;;7.17;;
76262;SDS011;65080;50.908;6.916;2023-03-01T09:52:19;9.00;;;7.70;;
76262;SDS011;65080;50.908;6.916;2023-03-01T09:54:53;12.70;;;7.67;;
76262;SDS011;65080;50.908;6.916;2023-03-01T09:57:28;13.40;;;6.90;;
76262;SDS011;65080;50.908;6.916;2023-03-01T10:03:03;11.33;;;7.20;;
76262;SDS011;65080;50.908;6.916;2023-03-01T10:05:41;12.27;;;8.10;;
76262;SDS011;65080;50.908;6.916;2023-03-01T10:08:27;11.43;;;7.50;;
76262;SDS011;65080;50.908;6.916;2023-03-01T10:11:03;13.47;;;7.57;;
76262;SDS011;65080;50.908;6.916;2023-03-01T10:13:34;11.50;;;7.67;;
76262;SDS011;65080;50.908;6.916;2023-03-01T10:16:13;9.50;;;7.40;;
76262;SDS011;65080;50.908;6.916;2023-03-01T10:18:45;10.30;;;7.17;;
76262;SDS011;65080;50.908;6.916;2023-03-01T10:21:19;9.43;;;7.10;;
76262;SDS011;65080;50.908;6.916;2023-03-01T10:23:49;10.23;;;7.53;;
76262;SDS011;65080;50.908;6.916;2023-03-01T10:26:22;12.77;;;8.30;;
76262;SDS011;65080;50.908;6.916;2023-03-01T10:29:01;13.00;;;8.23;;
76262;SDS011;65080;50.908;6.916;2023-03-01T10:31:37;9.87;;;7.50;;
76262;SDS011;65080;50.908;6.916;2023-03-01T10:34:10;11.30;;;7.37;;
76262;SDS011;65080;50.908;6.916;2023-03-01T10:36:40;11.60;;;8.30;;
76262;SDS011;65080;50.908;6.916;2023-03-01T10:39:14;10.70;;;7.97;;
76262;SDS011;65080;50.908;6.916;2023-03-01T10:41:52;12.33;;;7.33;;
76262;SDS011;65080;50.908;6.916;2023-03-01T10:44:35;12.00;;;7.83;;
76262;SDS011;65080;50.908;6.916;2023-03-01T10:47:11;11.40;;;7.37;;
76262;SDS011;65080;50.908;6.916;2023-03-01T10:49:54;12.97;;;7.70;;
76262;SDS011;65080;50.908;6.916;2023-03-01T10:52:25;12.40;;;8.13;;
76262;SDS011;65080;50.908;6.916;2023-03-01T10:54:55;9.40;;;7.43;;
76262;SDS011;65080;50.908;6.916;2023-03-01T10:57:36;10.63;;;7.70;;
76262;SDS011;65080;50.908;6.916;2023-03-01T11:00:16;13.10;;;8.47;;
76262;SDS011;65080;50.908;6.916;2023-03-01T11:03:01;12.70;;;9.00;;
76262;SDS011;65080;50.908;6.916;2023-03-01T11:05:39;10.90;;;7.00;;
76262;SDS011;65080;50.908;6.916;2023-03-01T11:08:29;14.07;;;8.10;;
76262;SDS011;65080;50.908;6.916;2023-03-01T11:11:06;15.57;;;7.53;;
76262;SDS011;65080;50.908;6.916;2023-03-01T11:13:47;12.50;;;7.60;;
76262;SDS011;65080;50.908;6.916;2023-03-01T11:16:22;8.27;;;7.00;;
76262;SDS011;65080;50.908;6.916;2023-03-01T11:18:58;10.77;;;7.30;;
76262;SDS011;65080;50.908;6.916;2023-03-01T11:21:28;10.50;;;8.43;;
76262;SDS011;65080;50.908;6.916;2023-03-01T11:24:00;11.50;;;7.03;;
76262;SDS011;65080;50.908;6.916;2023-03-01T11:26:30;10.43;;;7.27;;
76262;SDS011;65080;50.908;6.916;2023-03-01T11:29:04;10.53;;;7.20;;
76262;SDS011;65080;50.908;6.916;2023-03-01T11:31:40;9.70;;;7.07;;
76262;SDS011;65080;50.908;6.916;2023-03-01T11:34:27;9.90;;;7.17;;
76262;SDS011;65080;50.908;6.916;2023-03-01T11:37:08;11.67;;;7.27;;
76262;SDS011;65080;50.908;6.916;2023-03-01T11:39:44;13.93;;;7.43;;
76262;SDS011;65080;50.908;6.916;2023-03-01T11:42:19;10.27;;;6.33;;
76262;SDS011;65080;50.908;6.916;2023-03-01T11:44:54;9.53;;;6.90;;
76262;SDS011;65080;50.908;6.916;2023-03-01T11:47:32;11.90;;;7.93;;
76262;SDS011;65080;50.908;6.916;2023-03-01T11:50:20;9.83;;;7.17;;
76262;SDS011;65080;50.908;6.916;2023-03-01T11:52:59;10.80;;;7.30;;
76262;SDS011;65080;50.908;6.916;2023-03-01T11:55:45;10.23;;;7.47;;
76262;SDS011;65080;50.908;6.916;2023-03-01T11:58:23;10.27;;;7.40;;
76262;SDS011;65080;50.908;6.916;2023-03-01T12:01:08;9.90;;;7.33;;
76262;SDS011;65080;50.908;6.916;2023-03-01T12:04:05;10.77;;;7.70;;
76262;SDS011;65080;50.908;6.916;2023-03-01T12:06:54;14.63;;;7.70;;
76262;SDS011;65080;50.908;6.916;2023-03-01T12:09:29;13.93;;;7.93;;
76262;SDS011;65080;50.908;6.916;2023-03-01T12:12:12;11.90;;;8.10;;
76262;SDS011;65080;50.908;6.916;2023-03-01T12:15:11;10.90;;;6.97;;
76262;SDS011;65080;50.908;6.916;2023-03-01T12:18:10;10.40;;;7.43;;
76262;SDS011;65080;50.908;6.916;2023-03-01T12:20:56;9.50;;;6.70;;
76262;SDS011;65080;50.908;6.916;2023-03-01T12:23:39;9.67;;;7.50;;
76262;SDS011;65080;50.908;6.916;2023-03-01T12:26:28;11.03;;;6.80;;
76262;SDS011;65080;50.908;6.916;2023-03-01T12:29:02;8.13;;;6.90;;
76262;SDS011;65080;50.908;6.916;2023-03-01T12:31:51;11.97;;;8.07;;
76262;SDS011;65080;50.908;6.916;2023-03-01T12:34:50;12.10;;;8.60;;
76262;SDS011;65080;50.908;6.916;2023-03-01T12:37:47;14.67;;;8.67;;
76262;SDS011;65080;50.908;6.916;2023-03-01T12:40:36;7.70;;;6.87;;
76262;SDS011;65080;50.908;6.916;2023-03-01T12:43:36;9.60;;;6.73;;
76262;SDS011;65080;50.908;6.916;2023-03-01T12:46:20;9.10;;;7.20;;
76262;SDS011;65080;50.908;6.916;2023-03-01T12:48:59;9.50;;;6.40;;
76262;SDS011;65080;50.908;6.916;2023-03-01T12:51:34;9.50;;;7.03;;
76262;SDS011;65080;50.908;6.916;2023-03-01T12:54:14;9.70;;;6.70;;
76262;SDS011;65080;50.908;6.916;2023-03-01T12:56:52;9.20;;;7.20;;
76262;SDS011;65080;50.908;6.916;2023-03-01T12:59:24;10.33;;;7.10;;
76262;SDS011;65080;50.908;6.916;2023-03-01T13:02:02;10.07;;;6.80;;
76262;SDS011;65080;50.908;6.916;2023-03-01T13:08:58;12.17;;;6.90;;
76262;SDS011;65080;50.908;6.916;2023-03-01T13:12:03;9.93;;;5.80;;
76262;SDS011;65080;50.908;6.916;2023-03-01T13:15:13;9.10;;;6.40;;
76262;SDS011;65080;50.908;6.916;2023-03-01T13:17:54;11.80;;;7.63;;
76262;SDS011;65080;50.908;6.916;2023-03-01T13:27:18;9.30;;;6.77;;
76262;SDS011;65080;50.908;6.916;2023-03-01T13:29:52;8.83;;;7.10;;
76262;SDS011;65080;50.908;6.916;2023-03-01T13:32:39;11.00;;;7.40;;
76262;SDS011;65080;50.908;6.916;2023-03-01T13:38:48;11.90;;;7.17;;
76262;SDS011;65080;50.908;6.916;2023-03-01T13:42:25;7.67;;;6.83;;
76262;SDS011;65080;50.908;6.916;2023-03-01T13:46:01;8.83;;;6.80;;
76262;SDS011;65080;50.908;6.916;2023-03-01T13:49:53;17.90;;;8.13;;
76262;SDS011;65080;50.908;6.916;2023-03-01T13:53:49;11.90;;;6.77;;
76262;SDS011;65080;50.908;6.916;2023-03-01T13:57:03;9.97;;;6.70;;
76262;SDS011;65080;50.908;6.916;2023-03-01T14:01:07;9.70;;;7.30;;
76262;SDS011;65080;50.908;6.916;2023-03-01T14:03:40;10.00;;;8.20;;
76262;SDS011;65080;50.908;6.916;2023-03-01T14:06:13;9.70;;;6.43;;
76262;SDS011;65080;50.908;6.916;2023-03-01T14:08:50;11.83;;;7.80;;
76262;SDS011;65080;50.908;6.916;2023-03-01T14:11:34;10.50;;;7.57;;
76262;SDS011;65080;50.908;6.916;2023-03-01T14:14:22;8.90;;;7.47;;
76262;SDS011;65080;50.908;6.916;2023-03-01T14:17:14;11.83;;;6.87;;
76262;SDS011;65080;50.908;6.916;2023-03-01T14:20:09;8.10;;;6.87;;
76262;SDS011;65080;50.908;6.916;2023-03-01T14:22:41;9.10;;;7.10;;
76262;SDS011;65080;50.908;6.916;2023-03-01T14:25:19;7.67;;;6.00;;
76262;SDS011;65080;50.908;6.916;2023-03-01T14:27:54;15.77;;;10.27;;
76262;SDS011;65080;50.908;6.916;2023-03-01T14:30:25;9.53;;;8.07;;
76262;SDS011;65080;50.908;6.916;2023-03-01T14:32:55;10.57;;;7.73;;
76262;SDS011;65080;50.908;6.916;2023-03-01T14:35:26;8.43;;;7.03;;
76262;SDS011;65080;50.908;6.916;2023-03-01T14:37:56;7.30;;;6.13;;
76262;SDS011;65080;50.908;6.916;2023-03-01T14:40:26;8.40;;;7.30;;
76262;SDS011;65080;50.908;6.916;2023-03-01T14:42:56;8.40;;;6.40;;
76262;SDS011;65080;50.908;6.916;2023-03-01T14:45:27;8.90;;;6.93;;
76262;SDS011;65080;50.908;6.916;2023-03-01T14:47:58;12.33;;;8.00;;
76262;SDS011;65080;50.908;6.916;2023-03-01T14:50:30;8.93;;;6.60;;
76262;SDS011;65080;50.908;6.916;2023-03-01T14:53:00;11.37;;;7.00;;
76262;SDS011;65080;50.908;6.916;2023-03-01T14:55:31;8.17;;;6.90;;
76262;SDS011;65080;50.908;6.916;2023-03-01T14:58:02;10.00;;;7.20;;
76262;SDS011;65080;50.908;6.916;2023-03-01T15:00:32;10.73;;;6.30;;
76262;SDS011;65080;50.908;6.916;2023-03-01T15:03:04;8.47;;;6.97;;
76262;SDS011;65080;50.908;6.916;2023-03-01T15:05:41;8.03;;;6.60;;
76262;SDS011;65080;50.908;6.916;2023-03-01T15:08:15;9.97;;;7.47;;
76262;SDS011;65080;50.908;6.916;2023-03-01T15:10:55;8.30;;;6.83;;
76262;SDS011;65080;50.908;6.916;2023-03-01T15:13:26;7.30;;;6.50;;
76262;SDS011;65080;50.908;6.916;2023-03-01T15:16:01;6.80;;;6.03;;
76262;SDS011;65080;50.908;6.916;2023-03-01T15:18:33;8.07;;;6.90;;
76262;SDS011;65080;50.908;6.916;2023-03-01T15:21:07;9.40;;;6.93;;
76262;SDS011;65080;50.908;6.916;2023-03-01T15:23:37;11.63;;;6.60;;
76262;SDS011;65080;50.908;6.916;2023-03-01T15:26:17;8.03;;;6.53;;
76262;SDS011;65080;50.908;6.916;2023-03-01T15:28:51;11.03;;;6.97;;
76262;SDS011;65080;50.908;6.916;2023-03-01T15:31:25;7.73;;;6.97;;
76262;SDS011;65080;50.908;6.916;2023-03-01T15:34:09;11.73;;;7.77;;
76262;SDS011;65080;50.908;6.916;2023-03-01T15:36:42;11.70;;;7.13;;
76262;SDS011;65080;50.908;6.916;2023-03-01T15:39:30;8.43;;;6.17;;
76262;SDS011;65080;50.908;6.916;2023-03-01T15:42:04;7.97;;;6.50;;